Handytankers Glory — C6WH4 — position and weather

sailwx.info

Track history (hours):
 
Tides and Currents Weather Stations Pressure Air Temp Water Temp Dewpoint Dewpoint Depression Visibility Wind Speed Wind Dir Waves Ship Positions

Handytankers Glory

Last reported at 2018-Jul-28 11:31 UTC. Time now 2018-Aug-14 23:44 UTC.
Position N 27°35' W 015°22'.
Warning: this ship's position is 17 days out of date.

Length 171 m; draft 7.2 m.

Type: Tanker. MMSI: 309553000.

Date/timePositionNaut miles runAvg speedWind from/ knotsBaromVisibWave heightAir tempDewpointWater temp
2018-Jul-28 11:31N 27°35' W 015°22'614.6
2018-Jul-28 11:08N 27°40' W 015°19'214.6
2018-Jul-28 11:00N 27°42' W 015°19'714.3
2018-Jul-28 10:30N 27°48' W 015°15'713.6
2018-Jul-28 10:00N 27°55' W 015°15'713.0
2018-Jul-28 09:30N 28°01' W 015°16'713.2
2018-Jul-28 08:58N 28°07' W 015°22'2 5.2
2018-Jul-28 08:30N 28°08' W 015°24'0 0.2
2018-Jul-28 07:57N 28°08' W 015°24'0 0.1
2018-Jul-28 07:30N 28°08' W 015°24'0 0.1
2018-Jul-28 07:00N 28°08' W 015°24'0 0.0
2018-Jul-28 06:30N 28°08' W 015°24'0 0.1
2018-Jul-28 06:00N 28°08' W 015°24'0 0.1
2018-Jul-28 05:30N 28°08' W 015°24'0 0.0
2018-Jul-28 05:00N 28°08' W 015°24'0 0.1
2018-Jul-28 04:30N 28°08' W 015°24'0 0.0
2018-Jul-28 04:00N 28°08' W 015°24'0 0.0
2018-Jul-28 03:30N 28°08' W 015°24'0 0.0
2018-Jul-28 02:59N 28°08' W 015°24'0 0.0
2018-Jul-28 02:29N 28°08' W 015°24'0 0.1
2018-Jul-28 01:59N 28°08' W 015°24'0 0.0
2018-Jul-28 01:17N 28°08' W 015°24'0 0.1
2018-Jul-28 00:59N 28°08' W 015°24'0 0.1
2018-Jul-28 00:29N 28°08' W 015°24'0 0.6
2018-Jul-28 00:00N 28°08' W 015°24'2 3.7
2018-Jul-27 23:30N 28°08' W 015°22'4 7.6
2018-Jul-27 23:00N 28°08' W 015°17'612.7
2018-Jul-27 22:30N 28°08' W 015°10'612.8
2018-Jul-27 22:00N 28°09' W 015°03'612.5
2018-Jul-27 21:30N 28°07' W 014°56'612.6
2018-Jul-27 21:00N 28°05' W 014°49'712.6
2018-Jul-27 20:27N 28°02' W 014°42'612.8
2018-Jul-27 20:00N 27°60' W 014°36'713.0
2018-Jul-27 19:27N 27°58' W 014°28'613.5
2018-Jul-27 19:00N 27°58' W 014°21'612.8
2018-Jul-27 18:30N 27°60' W 014°14'610.5
2018-Jul-27 17:57N 28°02' W 014°09'614.2
2018-Jul-27 17:30N 28°05' W 014°02'815.1
2018-Jul-27 17:00N 28°09' W 013°55'  
2018-Jul-22 12:14N 28°30' W 013°48'6 9.8
2018-Jul-22 11:40N 28°34' W 013°44'2 8.4
2018-Jul-22 11:27N 28°36' W 013°44'4 8.2
2018-Jul-22 11:01N 28°39' W 013°42'510.1
2018-Jul-22 10:30N 28°44' W 013°39'612.8
2018-Jul-22 10:01N 28°49' W 013°36'612.7
2018-Jul-22 09:31N 28°55' W 013°33'3 3.3
2018-Jul-22 08:38N 28°58' W 013°32'0 0.0
2018-Jul-22 08:26N 28°58' W 013°32'0 0.0
2018-Jul-22 06:08N 28°58' W 013°32'0 0.0
2018-Jul-22 05:41N 28°58' W 013°32'0 0.0
2018-Jul-22 05:29N 28°58' W 013°32'0 0.0
2018-Jul-22 04:44N 28°58' W 013°32'0 0.0
2018-Jul-22 04:29N 28°58' W 013°32'0 0.0
2018-Jul-22 03:56N 28°58' W 013°32'0 0.0
2018-Jul-22 03:29N 28°58' W 013°32'0 0.0
2018-Jul-22 00:59N 28°58' W 013°32'0 0.0
2018-Jul-22 00:29N 28°58' W 013°32'0 0.0
2018-Jul-21 23:56N 28°58' W 013°32'0 0.0
2018-Jul-21 23:29N 28°58' W 013°32'0 0.0
2018-Jul-21 16:46N 28°58' W 013°32'0 0.0
2018-Jul-21 14:46N 28°58' W 013°32'0 0.0
2018-Jul-21 14:22N 28°58' W 013°32'0 0.0
2018-Jul-21 11:13N 28°58' W 013°32'0 0.0
2018-Jul-21 10:55N 28°58' W 013°32'0 0.0
2018-Jul-21 10:01N 28°58' W 013°32'0 0.0
2018-Jul-21 09:55N 28°58' W 013°32'0 0.0
2018-Jul-21 09:13N 28°58' W 013°32'0 0.0
2018-Jul-21 08:55N 28°58' W 013°32'0 0.0
2018-Jul-21 08:25N 28°58' W 013°32'0 0.0
2018-Jul-21 07:43N 28°58' W 013°32'0 0.0
2018-Jul-21 07:25N 28°58' W 013°32'0 0.0
2018-Jul-21 06:55N 28°58' W 013°32'0 0.0
2018-Jul-21 06:25N 28°58' W 013°32'0 0.0
2018-Jul-21 05:43N 28°58' W 013°32'0 0.0
2018-Jul-21 05:19N 28°58' W 013°32'0 0.0
2018-Jul-21 04:58N 28°58' W 013°32'0 0.0
2018-Jul-21 04:25N 28°58' W 013°32'0 0.0
2018-Jul-21 03:55N 28°58' W 013°32'0 0.0
2018-Jul-21 03:28N 28°58' W 013°32'0 0.0
2018-Jul-21 02:49N 28°58' W 013°32'0 0.0
2018-Jul-21 02:28N 28°58' W 013°32'0 0.0
2018-Jul-21 01:58N 28°58' W 013°32'0 0.0
2018-Jul-21 01:25N 28°58' W 013°32'0 0.0
2018-Jul-21 00:58N 28°58' W 013°32'0 0.0
2018-Jul-21 00:28N 28°58' W 013°32'0 0.0
2018-Jul-20 23:58N 28°58' W 013°32'0 0.0
2018-Jul-20 23:28N 28°58' W 013°32'0 0.0
2018-Jul-20 22:58N 28°58' W 013°32'0 0.0
2018-Jul-20 22:28N 28°58' W 013°32'0 0.0
2018-Jul-20 21:58N 28°58' W 013°32'0 0.0
2018-Jul-20 21:28N 28°58' W 013°32'0 0.0
2018-Jul-20 20:58N 28°58' W 013°32'0 0.0
2018-Jul-20 20:25N 28°58' W 013°32'0 0.0
2018-Jul-20 19:55N 28°58' W 013°32'0 0.0
2018-Jul-20 19:28N 28°58' W 013°32'0 0.0
2018-Jul-20 18:58N 28°58' W 013°32'0 0.0
2018-Jul-20 18:25N 28°58' W 013°32'0 0.0
2018-Jul-20 17:58N 28°58' W 013°32'0 0.0
2018-Jul-20 17:28N 28°58' W 013°32'0 0.0
2018-Jul-20 16:58N 28°58' W 013°32'0 0.0
2018-Jul-20 16:28N 28°58' W 013°32'0 0.0
2018-Jul-20 15:49N 28°58' W 013°32'0 0.0
2018-Jul-20 15:25N 28°58' W 013°32'0 0.0
2018-Jul-20 14:55N 28°58' W 013°32'0 0.0
2018-Jul-20 14:25N 28°58' W 013°32'0 0.0
2018-Jul-20 13:49N 28°58' W 013°32'0 0.0
2018-Jul-20 13:22N 28°58' W 013°32'0 0.0
2018-Jul-20 12:55N 28°58' W 013°32'0 0.0
2018-Jul-20 12:31N 28°58' W 013°32'0 0.0
2018-Jul-20 11:55N 28°58' W 013°32'0 0.0
2018-Jul-20 11:31N 28°58' W 013°32'0 0.0
2018-Jul-20 11:00N 28°58' W 013°32'0 0.0
2018-Jul-20 10:30N 28°58' W 013°32'0 0.0
2018-Jul-20 10:00N 28°58' W 013°32'0 0.0
2018-Jul-20 09:30N 28°58' W 013°32'0 0.0
2018-Jul-20 09:00N 28°58' W 013°32'0 0.0
2018-Jul-20 08:30N 28°58' W 013°32'0 0.0
2018-Jul-20 08:00N 28°58' W 013°32'0 0.0
2018-Jul-20 07:24N 28°58' W 013°32'0 0.0
2018-Jul-20 06:54N 28°58' W 013°32'0 0.0
2018-Jul-20 06:24N 28°58' W 013°32'0 0.0
2018-Jul-20 05:54N 28°58' W 013°32'0 0.0
2018-Jul-20 05:24N 28°58' W 013°32'0 0.0
2018-Jul-20 04:54N 28°58' W 013°32'0 0.0
2018-Jul-20 04:24N 28°58' W 013°32'0 0.0
2018-Jul-20 03:54N 28°58' W 013°32'0 0.0
2018-Jul-20 03:27N 28°58' W 013°32'0 0.0
2018-Jul-20 03:00N 28°58' W 013°32'0 0.0
2018-Jul-20 02:27N 28°58' W 013°32'0 0.0
2018-Jul-20 01:57N 28°58' W 013°32'0 0.0
2018-Jul-20 01:30N 28°58' W 013°32'0 0.0
2018-Jul-20 01:00N 28°58' W 013°32'0 0.0
2018-Jul-20 00:12N 28°58' W 013°32'0 0.0
2018-Jul-19 23:18N 28°58' W 013°32'0 0.0
2018-Jul-19 22:54N 28°58' W 013°32'0 0.0
2018-Jul-19 22:30N 28°58' W 013°32'0 0.0
2018-Jul-19 22:00N 28°58' W 013°32'0 0.0
2018-Jul-19 21:27N 28°58' W 013°32'0 0.0
2018-Jul-19 21:00N 28°58' W 013°32'0 0.0
2018-Jul-19 20:30N 28°58' W 013°32'0 0.0
2018-Jul-19 20:00N 28°58' W 013°32'0 0.0
2018-Jul-19 19:24N 28°58' W 013°32'0 0.0
2018-Jul-19 19:00N 28°58' W 013°32'0 0.0
2018-Jul-19 18:24N 28°58' W 013°32'0 0.0
2018-Jul-19 18:00N 28°58' W 013°32'0 0.0
2018-Jul-19 17:30N 28°58' W 013°32'0 0.0
2018-Jul-19 17:00N 28°58' W 013°32'0 0.0
2018-Jul-19 16:30N 28°58' W 013°32'0 0.0
2018-Jul-19 16:00N 28°58' W 013°32'0 0.0
2018-Jul-19 15:30N 28°58' W 013°32'0 0.0
2018-Jul-19 15:00N 28°58' W 013°32'0 0.0
2018-Jul-19 14:24N 28°58' W 013°32'0 0.0
2018-Jul-19 13:24N 28°58' W 013°32'0 0.0
2018-Jul-19 13:00N 28°58' W 013°32'0 0.0
2018-Jul-19 12:30N 28°58' W 013°32'0 0.0
2018-Jul-19 11:54N 28°58' W 013°32'0 0.0
2018-Jul-19 11:30N 28°58' W 013°32'0 0.0
2018-Jul-19 11:00N 28°58' W 013°32'0 0.0
2018-Jul-19 10:30N 28°58' W 013°32'0 0.0
2018-Jul-19 10:00N 28°58' W 013°32'0 0.0
2018-Jul-19 09:24N 28°58' W 013°32'0 0.0
2018-Jul-19 08:54N 28°58' W 013°32'0 0.0
2018-Jul-19 08:30N 28°58' W 013°32'0 0.0
2018-Jul-19 07:48N 28°58' W 013°32'0 0.0
2018-Jul-19 07:24N 28°58' W 013°32'0 0.0
2018-Jul-19 06:51N 28°58' W 013°32'0 0.0
2018-Jul-19 06:30N 28°58' W 013°32'0 0.0
2018-Jul-19 05:54N 28°58' W 013°32'0 0.0
2018-Jul-19 05:30N 28°58' W 013°32'0 0.0
2018-Jul-19 05:00N 28°58' W 013°32'0 0.0
2018-Jul-19 04:30N 28°58' W 013°32'0 0.0
2018-Jul-19 03:54N 28°58' W 013°32'0 0.0
2018-Jul-19 03:24N 28°58' W 013°32'0 0.0
2018-Jul-19 03:00N 28°58' W 013°32'0 0.0
2018-Jul-19 02:24N 28°58' W 013°32'0 0.0
2018-Jul-19 02:00N 28°58' W 013°32'0 0.0
2018-Jul-19 01:24N 28°58' W 013°32'0 0.0
2018-Jul-19 00:54N 28°58' W 013°32'0 0.0
2018-Jul-19 00:23N 28°58' W 013°32'0 0.0
2018-Jul-18 22:47N 28°58' W 013°32'0 0.0
2018-Jul-18 22:29N 28°58' W 013°32'0 0.0
2018-Jul-18 21:41N 28°58' W 013°32'0 0.0
2018-Jul-18 21:23N 28°58' W 013°32'0 0.0
2018-Jul-18 20:59N 28°58' W 013°32'0 0.0
2018-Jul-18 20:29N 28°58' W 013°32'0 0.0
2018-Jul-18 19:59N 28°58' W 013°32'0 0.0
2018-Jul-18 19:20N 28°58' W 013°32'0 0.0
2018-Jul-18 19:00N 28°58' W 013°32'0 0.0
2018-Jul-18 18:30N 28°58' W 013°32'0 0.0
2018-Jul-18 18:00N 28°58' W 013°32'0 0.9
2018-Jul-18 17:30N 28°58' W 013°32'1 2.1
2018-Jul-18 17:00N 28°58' W 013°31'0 0.2
2018-Jul-18 16:30N 28°58' W 013°31'0 0.0
2018-Jul-18 16:00N 28°58' W 013°31'0 0.0
2018-Jul-18 15:30N 28°58' W 013°31'0 0.0
2018-Jul-18 15:00N 28°58' W 013°31'0 0.0
2018-Jul-18 14:30N 28°58' W 013°31'0 0.0
2018-Jul-18 13:30N 28°58' W 013°31'0 0.0
2018-Jul-18 13:00N 28°58' W 013°31'0 0.0
2018-Jul-18 12:24N 28°58' W 013°31'0 0.0
2018-Jul-18 11:42N 28°58' W 013°31'  
Track history (hours):
 
Tides and Currents Weather Stations Pressure Air Temp Water Temp Dewpoint Dewpoint Depression Visibility Wind Speed Wind Dir Waves Ship Positions

Handytankers Glory

Last reported at 2018-Jul-28 11:31 UTC. Time now 2018-Aug-14 23:44 UTC.
Position N 27°35' W 015°22'.
Warning: this ship's position is 17 days out of date.

Length 171 m; draft 7.2 m.

Type: Tanker. MMSI: 309553000.

Date/timePositionNaut miles runAvg speedWind from/ knotsBaromVisibWave heightAir tempDewpointWater temp
2018-Jul-28 11:31N 27°35' W 015°22'614.6
2018-Jul-28 11:08N 27°40' W 015°19'214.6
2018-Jul-28 11:00N 27°42' W 015°19'714.3
2018-Jul-28 10:30N 27°48' W 015°15'713.6
2018-Jul-28 10:00N 27°55' W 015°15'713.0
2018-Jul-28 09:30N 28°01' W 015°16'713.2
2018-Jul-28 08:58N 28°07' W 015°22'2 5.2
2018-Jul-28 08:30N 28°08' W 015°24'0 0.2
2018-Jul-28 07:57N 28°08' W 015°24'0 0.1
2018-Jul-28 07:30N 28°08' W 015°24'0 0.1
2018-Jul-28 07:00N 28°08' W 015°24'0 0.0
2018-Jul-28 06:30N 28°08' W 015°24'0 0.1
2018-Jul-28 06:00N 28°08' W 015°24'0 0.1
2018-Jul-28 05:30N 28°08' W 015°24'0 0.0
2018-Jul-28 05:00N 28°08' W 015°24'0 0.1
2018-Jul-28 04:30N 28°08' W 015°24'0 0.0
2018-Jul-28 04:00N 28°08' W 015°24'0 0.0
2018-Jul-28 03:30N 28°08' W 015°24'0 0.0
2018-Jul-28 02:59N 28°08' W 015°24'0 0.0
2018-Jul-28 02:29N 28°08' W 015°24'0 0.1
2018-Jul-28 01:59N 28°08' W 015°24'0 0.0
2018-Jul-28 01:17N 28°08' W 015°24'0 0.1
2018-Jul-28 00:59N 28°08' W 015°24'0 0.1
2018-Jul-28 00:29N 28°08' W 015°24'0 0.6
2018-Jul-28 00:00N 28°08' W 015°24'2 3.7
2018-Jul-27 23:30N 28°08' W 015°22'4 7.6
2018-Jul-27 23:00N 28°08' W 015°17'612.7
2018-Jul-27 22:30N 28°08' W 015°10'612.8
2018-Jul-27 22:00N 28°09' W 015°03'612.5
2018-Jul-27 21:30N 28°07' W 014°56'612.6
2018-Jul-27 21:00N 28°05' W 014°49'712.6
2018-Jul-27 20:27N 28°02' W 014°42'612.8
2018-Jul-27 20:00N 27°60' W 014°36'713.0
2018-Jul-27 19:27N 27°58' W 014°28'613.5
2018-Jul-27 19:00N 27°58' W 014°21'612.8
2018-Jul-27 18:30N 27°60' W 014°14'610.5
2018-Jul-27 17:57N 28°02' W 014°09'614.2
2018-Jul-27 17:30N 28°05' W 014°02'815.1
2018-Jul-27 17:00N 28°09' W 013°55'  
2018-Jul-22 12:14N 28°30' W 013°48'6 9.8
2018-Jul-22 11:40N 28°34' W 013°44'2 8.4
2018-Jul-22 11:27N 28°36' W 013°44'4 8.2
2018-Jul-22 11:01N 28°39' W 013°42'510.1
2018-Jul-22 10:30N 28°44' W 013°39'612.8
2018-Jul-22 10:01N 28°49' W 013°36'612.7
2018-Jul-22 09:31N 28°55' W 013°33'3 3.3
2018-Jul-22 08:38N 28°58' W 013°32'0 0.0
2018-Jul-22 08:26N 28°58' W 013°32'0 0.0
2018-Jul-22 06:08N 28°58' W 013°32'0 0.0
2018-Jul-22 05:41N 28°58' W 013°32'0 0.0
2018-Jul-22 05:29N 28°58' W 013°32'0 0.0
2018-Jul-22 04:44N 28°58' W 013°32'0 0.0
2018-Jul-22 04:29N 28°58' W 013°32'0 0.0
2018-Jul-22 03:56N 28°58' W 013°32'0 0.0
2018-Jul-22 03:29N 28°58' W 013°32'0 0.0
2018-Jul-22 00:59N 28°58' W 013°32'0 0.0
2018-Jul-22 00:29N 28°58' W 013°32'0 0.0
2018-Jul-21 23:56N 28°58' W 013°32'0 0.0
2018-Jul-21 23:29N 28°58' W 013°32'0 0.0
2018-Jul-21 16:46N 28°58' W 013°32'0 0.0
2018-Jul-21 14:46N 28°58' W 013°32'0 0.0
2018-Jul-21 14:22N 28°58' W 013°32'0 0.0
2018-Jul-21 11:13N 28°58' W 013°32'0 0.0
2018-Jul-21 10:55N 28°58' W 013°32'0 0.0
2018-Jul-21 10:01N 28°58' W 013°32'0 0.0
2018-Jul-21 09:55N 28°58' W 013°32'0 0.0
2018-Jul-21 09:13N 28°58' W 013°32'0 0.0
2018-Jul-21 08:55N 28°58' W 013°32'0 0.0
2018-Jul-21 08:25N 28°58' W 013°32'0 0.0
2018-Jul-21 07:43N 28°58' W 013°32'0 0.0
2018-Jul-21 07:25N 28°58' W 013°32'0 0.0
2018-Jul-21 06:55N 28°58' W 013°32'0 0.0
2018-Jul-21 06:25N 28°58' W 013°32'0 0.0
2018-Jul-21 05:43N 28°58' W 013°32'0 0.0
2018-Jul-21 05:19N 28°58' W 013°32'0 0.0
2018-Jul-21 04:58N 28°58' W 013°32'0 0.0
2018-Jul-21 04:25N 28°58' W 013°32'0 0.0
2018-Jul-21 03:55N 28°58' W 013°32'0 0.0
2018-Jul-21 03:28N 28°58' W 013°32'0 0.0
2018-Jul-21 02:49N 28°58' W 013°32'0 0.0
2018-Jul-21 02:28N 28°58' W 013°32'0 0.0
2018-Jul-21 01:58N 28°58' W 013°32'0 0.0
2018-Jul-21 01:25N 28°58' W 013°32'0 0.0
2018-Jul-21 00:58N 28°58' W 013°32'0 0.0
2018-Jul-21 00:28N 28°58' W 013°32'0 0.0
2018-Jul-20 23:58N 28°58' W 013°32'0 0.0
2018-Jul-20 23:28N 28°58' W 013°32'0 0.0
2018-Jul-20 22:58N 28°58' W 013°32'0 0.0
2018-Jul-20 22:28N 28°58' W 013°32'0 0.0
2018-Jul-20 21:58N 28°58' W 013°32'0 0.0
2018-Jul-20 21:28N 28°58' W 013°32'0 0.0
2018-Jul-20 20:58N 28°58' W 013°32'0 0.0
2018-Jul-20 20:25N 28°58' W 013°32'0 0.0
2018-Jul-20 19:55N 28°58' W 013°32'0 0.0
2018-Jul-20 19:28N 28°58' W 013°32'0 0.0
2018-Jul-20 18:58N 28°58' W 013°32'0 0.0
2018-Jul-20 18:25N 28°58' W 013°32'0 0.0
2018-Jul-20 17:58N 28°58' W 013°32'0 0.0
2018-Jul-20 17:28N 28°58' W 013°32'0 0.0
2018-Jul-20 16:58N 28°58' W 013°32'0 0.0
2018-Jul-20 16:28N 28°58' W 013°32'0 0.0
2018-Jul-20 15:49N 28°58' W 013°32'0 0.0
2018-Jul-20 15:25N 28°58' W 013°32'0 0.0
2018-Jul-20 14:55N 28°58' W 013°32'0 0.0
2018-Jul-20 14:25N 28°58' W 013°32'0 0.0
2018-Jul-20 13:49N 28°58' W 013°32'0 0.0
2018-Jul-20 13:22N 28°58' W 013°32'0 0.0
2018-Jul-20 12:55N 28°58' W 013°32'0 0.0
2018-Jul-20 12:31N 28°58' W 013°32'0 0.0
2018-Jul-20 11:55N 28°58' W 013°32'0 0.0
2018-Jul-20 11:31N 28°58' W 013°32'0 0.0
2018-Jul-20 11:00N 28°58' W 013°32'0 0.0
2018-Jul-20 10:30N 28°58' W 013°32'0 0.0
2018-Jul-20 10:00N 28°58' W 013°32'0 0.0
2018-Jul-20 09:30N 28°58' W 013°32'0 0.0
2018-Jul-20 09:00N 28°58' W 013°32'0 0.0
2018-Jul-20 08:30N 28°58' W 013°32'0 0.0
2018-Jul-20 08:00N 28°58' W 013°32'0 0.0
2018-Jul-20 07:24N 28°58' W 013°32'0 0.0
2018-Jul-20 06:54N 28°58' W 013°32'0 0.0
2018-Jul-20 06:24N 28°58' W 013°32'0 0.0
2018-Jul-20 05:54N 28°58' W 013°32'0 0.0
2018-Jul-20 05:24N 28°58' W 013°32'0 0.0
2018-Jul-20 04:54N 28°58' W 013°32'0 0.0
2018-Jul-20 04:24N 28°58' W 013°32'0 0.0
2018-Jul-20 03:54N 28°58' W 013°32'0 0.0
2018-Jul-20 03:27N 28°58' W 013°32'0 0.0
2018-Jul-20 03:00N 28°58' W 013°32'0 0.0
2018-Jul-20 02:27N 28°58' W 013°32'0 0.0
2018-Jul-20 01:57N 28°58' W 013°32'0 0.0
2018-Jul-20 01:30N 28°58' W 013°32'0 0.0
2018-Jul-20 01:00N 28°58' W 013°32'0 0.0
2018-Jul-20 00:12N 28°58' W 013°32'0 0.0
2018-Jul-19 23:18N 28°58' W 013°32'0 0.0
2018-Jul-19 22:54N 28°58' W 013°32'0 0.0
2018-Jul-19 22:30N 28°58' W 013°32'0 0.0
2018-Jul-19 22:00N 28°58' W 013°32'0 0.0
2018-Jul-19 21:27N 28°58' W 013°32'0 0.0
2018-Jul-19 21:00N 28°58' W 013°32'0 0.0
2018-Jul-19 20:30N 28°58' W 013°32'0 0.0
2018-Jul-19 20:00N 28°58' W 013°32'0 0.0
2018-Jul-19 19:24N 28°58' W 013°32'0 0.0
2018-Jul-19 19:00N 28°58' W 013°32'0 0.0
2018-Jul-19 18:24N 28°58' W 013°32'0 0.0
2018-Jul-19 18:00N 28°58' W 013°32'0 0.0
2018-Jul-19 17:30N 28°58' W 013°32'0 0.0
2018-Jul-19 17:00N 28°58' W 013°32'0 0.0
2018-Jul-19 16:30N 28°58' W 013°32'0 0.0
2018-Jul-19 16:00N 28°58' W 013°32'0 0.0
2018-Jul-19 15:30N 28°58' W 013°32'0 0.0
2018-Jul-19 15:00N 28°58' W 013°32'0 0.0
2018-Jul-19 14:24N 28°58' W 013°32'0 0.0
2018-Jul-19 13:24N 28°58' W 013°32'0 0.0
2018-Jul-19 13:00N 28°58' W 013°32'0 0.0
2018-Jul-19 12:30N 28°58' W 013°32'0 0.0
2018-Jul-19 11:54N 28°58' W 013°32'0 0.0
2018-Jul-19 11:30N 28°58' W 013°32'0 0.0
2018-Jul-19 11:00N 28°58' W 013°32'0 0.0
2018-Jul-19 10:30N 28°58' W 013°32'0 0.0
2018-Jul-19 10:00N 28°58' W 013°32'0 0.0
2018-Jul-19 09:24N 28°58' W 013°32'0 0.0
2018-Jul-19 08:54N 28°58' W 013°32'0 0.0
2018-Jul-19 08:30N 28°58' W 013°32'0 0.0
2018-Jul-19 07:48N 28°58' W 013°32'0 0.0
2018-Jul-19 07:24N 28°58' W 013°32'0 0.0
2018-Jul-19 06:51N 28°58' W 013°32'0 0.0
2018-Jul-19 06:30N 28°58' W 013°32'0 0.0
2018-Jul-19 05:54N 28°58' W 013°32'0 0.0
2018-Jul-19 05:30N 28°58' W 013°32'0 0.0
2018-Jul-19 05:00N 28°58' W 013°32'0 0.0
2018-Jul-19 04:30N 28°58' W 013°32'0 0.0
2018-Jul-19 03:54N 28°58' W 013°32'0 0.0
2018-Jul-19 03:24N 28°58' W 013°32'0 0.0
2018-Jul-19 03:00N 28°58' W 013°32'0 0.0
2018-Jul-19 02:24N 28°58' W 013°32'0 0.0
2018-Jul-19 02:00N 28°58' W 013°32'0 0.0
2018-Jul-19 01:24N 28°58' W 013°32'0 0.0
2018-Jul-19 00:54N 28°58' W 013°32'0 0.0
2018-Jul-19 00:23N 28°58' W 013°32'0 0.0
2018-Jul-18 22:47N 28°58' W 013°32'0 0.0
2018-Jul-18 22:29N 28°58' W 013°32'0 0.0
2018-Jul-18 21:41N 28°58' W 013°32'0 0.0
2018-Jul-18 21:23N 28°58' W 013°32'0 0.0
2018-Jul-18 20:59N 28°58' W 013°32'0 0.0
2018-Jul-18 20:29N 28°58' W 013°32'0 0.0
2018-Jul-18 19:59N 28°58' W 013°32'0 0.0
2018-Jul-18 19:20N 28°58' W 013°32'0 0.0
2018-Jul-18 19:00N 28°58' W 013°32'0 0.0
2018-Jul-18 18:30N 28°58' W 013°32'0 0.0
2018-Jul-18 18:00N 28°58' W 013°32'0 0.9
2018-Jul-18 17:30N 28°58' W 013°32'1 2.1
2018-Jul-18 17:00N 28°58' W 013°31'0 0.2
2018-Jul-18 16:30N 28°58' W 013°31'0 0.0
2018-Jul-18 16:00N 28°58' W 013°31'0 0.0
2018-Jul-18 15:30N 28°58' W 013°31'0 0.0
2018-Jul-18 15:00N 28°58' W 013°31'0 0.0
2018-Jul-18 14:30N 28°58' W 013°31'0 0.0
2018-Jul-18 13:30N 28°58' W 013°31'0 0.0
2018-Jul-18 13:00N 28°58' W 013°31'0 0.0
2018-Jul-18 12:24N 28°58' W 013°31'0 0.0
2018-Jul-18 11:42N 28°58' W 013°31'  

Dump ship's entire track history